createdAt,value
2016-09-08T00:00:50.149Z,8
2016-09-08T00:01:49.780Z,8
2016-09-08T00:02:50.030Z,8
2016-09-08T00:03:49.719Z,8
2016-09-08T00:04:49.915Z,8
2016-09-08T00:05:49.555Z,8
2016-09-08T00:06:49.491Z,8
2016-09-08T00:07:49.950Z,8
2016-09-08T00:08:49.370Z,8
2016-09-08T00:09:49.313Z,8
2016-09-08T00:10:49.262Z,8
2016-09-08T00:11:49.191Z,8
2016-09-08T00:12:49.140Z,8
2016-09-08T00:13:49.712Z,8
2016-09-08T00:14:49.021Z,8
2016-09-08T00:15:49.271Z,8
2016-09-08T00:16:48.895Z,8
2016-09-08T00:17:48.845Z,8
2016-09-08T00:18:48.782Z,8
2016-09-08T00:19:48.727Z,8
2016-09-08T00:20:48.688Z,8
2016-09-08T00:21:48.627Z,8
2016-09-08T00:22:48.548Z,8
2016-09-08T00:23:48.487Z,8
2016-09-08T00:24:48.732Z,8
2016-09-08T00:25:48.695Z,8
2016-09-08T00:26:48.642Z,8
2016-09-08T00:27:48.262Z,8
2016-09-08T00:28:48.191Z,8
2016-09-08T00:29:48.156Z,8
2016-09-08T00:30:48.385Z,8
2016-09-08T00:31:48.019Z,8
2016-09-08T00:32:47.972Z,8
2016-09-08T00:33:47.902Z,8
2016-09-08T00:34:47.850Z,8
2016-09-08T00:35:47.802Z,8
2016-09-08T00:36:47.729Z,8
2016-09-08T00:37:47.664Z,8
2016-09-08T00:38:48.210Z,8
2016-09-08T00:39:47.542Z,8
2016-09-08T00:40:47.487Z,8
2016-09-08T00:41:47.730Z,8
2016-09-08T00:42:47.366Z,8
2016-09-08T00:43:47.314Z,8
2016-09-08T00:44:47.574Z,8
2016-09-08T00:45:47.190Z,8
2016-09-08T00:46:47.133Z,8
2016-09-08T00:47:47.457Z,8
2016-09-08T00:48:47.017Z,8
2016-09-08T00:49:46.957Z,8
2016-09-08T00:50:46.899Z,8
2016-09-08T00:51:47.143Z,8
2016-09-08T00:52:47.110Z,8
2016-09-08T00:53:47.033Z,8
2016-09-08T00:54:46.667Z,8
2016-09-08T00:55:46.959Z,8
2016-09-08T00:56:47.160Z,8
2016-09-08T00:57:46.493Z,8
2016-09-08T00:58:46.425Z,8
2016-09-08T00:59:46.378Z,8
2016-09-08T01:00:46.311Z,8
2016-09-08T01:01:46.250Z,8
2016-09-08T01:02:46.502Z,8
2016-09-08T01:03:46.133Z,8
2016-09-08T01:04:46.074Z,8
2016-09-08T01:05:46.021Z,8
2016-09-08T01:06:45.952Z,8
2016-09-08T01:07:45.930Z,8
2016-09-08T01:08:45.832Z,8
2016-09-08T01:09:46.019Z,8
2016-09-08T01:10:46.026Z,8
2016-09-08T01:11:45.660Z,8
2016-09-08T01:12:45.607Z,8
2016-09-08T01:13:45.545Z,8
2016-09-08T01:14:45.790Z,8
2016-09-08T01:15:45.434Z,8
2016-09-08T01:16:45.371Z,8
2016-09-08T01:17:45.694Z,8
2016-09-08T01:18:45.264Z,8
2016-09-08T01:19:45.193Z,8
2016-09-08T01:20:45.139Z,8
2016-09-08T01:21:45.082Z,8
2016-09-08T01:22:45.021Z,8
2016-09-08T01:23:45.261Z,8
2016-09-08T01:24:44.899Z,8
2016-09-08T01:25:44.870Z,8
2016-09-08T01:26:44.782Z,8
2016-09-08T01:27:45.025Z,8
2016-09-08T01:28:44.661Z,8
2016-09-08T01:29:44.604Z,8
2016-09-08T01:30:44.547Z,8
2016-09-08T01:31:44.489Z,8
2016-09-08T01:32:44.733Z,8
2016-09-08T01:33:44.673Z,8
2016-09-08T01:34:44.307Z,8
2016-09-08T01:35:44.858Z,8
2016-09-08T01:36:44.201Z,8
2016-09-08T01:37:44.131Z,8
2016-09-08T01:38:44.071Z,8
2016-09-08T01:39:44.012Z,8
2016-09-08T01:40:43.960Z,8
2016-09-08T01:41:43.892Z,8
2016-09-08T01:42:44.147Z,8
2016-09-08T01:43:43.777Z,8
2016-09-08T01:44:43.716Z,8
2016-09-08T01:45:43.669Z,8
2016-09-08T01:46:43.604Z,8
2016-09-08T01:47:43.547Z,8
2016-09-08T01:48:43.482Z,8
2016-09-08T01:49:43.422Z,8
2016-09-08T01:50:43.361Z,8
2016-09-08T01:51:43.305Z,8
2016-09-08T01:52:43.244Z,8
2016-09-08T01:53:43.199Z,8
2016-09-08T01:54:43.131Z,8
2016-09-08T01:55:43.073Z,8
2016-09-08T01:56:43.006Z,8
2016-09-08T01:57:42.957Z,8
2016-09-08T01:58:42.889Z,8
2016-09-08T01:59:42.836Z,8
2016-09-08T02:00:43.075Z,8
2016-09-08T02:01:42.719Z,8
2016-09-08T02:02:42.664Z,8
2016-09-08T02:03:42.597Z,8
2016-09-08T02:04:42.849Z,8
2016-09-08T02:05:42.483Z,8
2016-09-08T02:06:42.424Z,8
2016-09-08T02:07:42.368Z,8
2016-09-08T02:08:42.315Z,8
2016-09-08T02:09:42.252Z,8
2016-09-08T02:10:42.184Z,8
2016-09-08T02:11:42.433Z,8
2016-09-08T02:12:42.069Z,8
2016-09-08T02:13:42.016Z,8
2016-09-08T02:14:41.950Z,8
2016-09-08T02:15:41.890Z,8
2016-09-08T02:16:41.837Z,8
2016-09-08T02:17:41.776Z,8
2016-09-08T02:18:43.756Z,8
2016-09-08T02:19:41.952Z,8
2016-09-08T02:20:41.901Z,8
2016-09-08T02:21:41.539Z,8
2016-09-08T02:22:41.482Z,8
2016-09-08T02:23:41.424Z,8
2016-09-08T02:24:41.364Z,8
2016-09-08T02:25:41.306Z,8
2016-09-08T02:26:41.250Z,8
2016-09-08T02:27:41.191Z,8
2016-09-08T02:28:41.138Z,8
2016-09-08T02:29:41.066Z,8
2016-09-08T02:30:41.009Z,8
2016-09-08T02:31:40.961Z,8
2016-09-08T02:32:40.892Z,8
2016-09-08T02:33:40.831Z,8
2016-09-08T02:34:40.770Z,8
2016-09-08T02:35:40.714Z,8
2016-09-08T02:36:40.654Z,8
2016-09-08T02:37:40.596Z,8
2016-09-08T02:38:40.836Z,8
2016-09-08T02:39:40.480Z,8
2016-09-08T02:40:40.419Z,8
2016-09-08T02:41:40.376Z,8
2016-09-08T02:42:40.296Z,8
2016-09-08T02:43:40.250Z,8
2016-09-08T02:44:40.181Z,8
2016-09-08T02:45:40.126Z,8
2016-09-08T02:46:40.059Z,8
2016-09-08T02:47:40.005Z,8
2016-09-08T02:48:39.947Z,8
2016-09-08T02:49:39.889Z,8
2016-09-08T02:50:40.754Z,8
2016-09-08T02:51:39.770Z,8
2016-09-08T02:52:39.710Z,8
2016-09-08T02:53:39.657Z,8
2016-09-08T02:54:39.601Z,8
2016-09-08T02:55:39.535Z,8
2016-09-08T02:56:39.476Z,8
2016-09-08T02:57:39.415Z,8
2016-09-08T02:58:39.355Z,8
2016-09-08T02:59:39.296Z,8
2016-09-08T03:00:39.251Z,8
2016-09-08T03:01:39.178Z,8
2016-09-08T03:02:39.124Z,8
2016-09-08T03:03:39.060Z,8
2016-09-08T03:04:39.003Z,8
2016-09-08T03:05:38.951Z,8
2016-09-08T03:06:38.904Z,8
2016-09-08T03:07:38.826Z,8
2016-09-08T03:08:38.825Z,8
2016-09-08T03:09:39.015Z,8
2016-09-08T03:10:38.660Z,8
2016-09-08T03:11:38.592Z,8
2016-09-08T03:12:38.582Z,8
2016-09-08T03:13:38.772Z,8
2016-09-08T03:14:38.718Z,8
2016-09-08T03:15:38.358Z,8
2016-09-08T03:16:38.291Z,8
2016-09-08T03:17:38.546Z,8
2016-09-08T03:18:38.182Z,8
2016-09-08T03:19:38.118Z,8
2016-09-08T03:20:38.061Z,8
2016-09-08T03:21:37.999Z,8
2016-09-08T03:22:38.243Z,8
2016-09-08T03:23:38.197Z,8
2016-09-08T03:24:37.821Z,8
2016-09-08T03:25:37.762Z,8
2016-09-08T03:26:37.705Z,8
2016-09-08T03:27:37.640Z,8
2016-09-08T03:28:37.788Z,8
2016-09-08T03:29:37.526Z,8
2016-09-08T03:30:37.466Z,8
2016-09-08T03:31:37.405Z,8
2016-09-08T03:32:37.352Z,8
2016-09-08T03:33:37.296Z,8
2016-09-08T03:34:37.231Z,4
2016-09-08T03:35:37.173Z,4
2016-09-08T03:36:37.108Z,4
2016-09-08T03:37:37.059Z,4
2016-09-08T03:38:36.999Z,4
2016-09-08T03:39:36.985Z,4
2016-09-08T03:40:37.185Z,4
2016-09-08T03:41:36.819Z,4
2016-09-08T03:42:36.760Z,8
2016-09-08T03:43:37.004Z,8
2016-09-08T03:44:37.258Z,4
2016-09-08T03:45:36.580Z,4
2016-09-08T03:46:36.524Z,4
2016-09-08T03:47:36.466Z,4
2016-09-08T03:48:36.712Z,4
2016-09-08T03:49:36.348Z,8
2016-09-08T03:50:36.290Z,4
2016-09-08T03:51:36.239Z,4
2016-09-08T03:52:36.173Z,4
2016-09-08T03:53:36.114Z,4
2016-09-08T03:54:36.047Z,4
2016-09-08T03:55:35.993Z,4
2016-09-08T03:56:36.548Z,4
2016-09-08T03:57:35.874Z,4
2016-09-08T03:58:35.818Z,4
2016-09-08T03:59:35.761Z,4
2016-09-08T04:00:35.704Z,4
2016-09-08T04:01:35.643Z,4
2016-09-08T04:02:35.579Z,4
2016-09-08T04:03:35.527Z,4
2016-09-08T04:04:35.463Z,4
2016-09-08T04:05:35.402Z,4
2016-09-08T04:06:35.653Z,4
2016-09-08T04:07:35.593Z,4
2016-09-08T04:08:35.228Z,8
2016-09-08T04:09:35.178Z,8
2016-09-08T04:10:35.118Z,8
2016-09-08T04:11:35.051Z,8
2016-09-08T04:12:34.987Z,8
2016-09-08T04:13:34.931Z,8
2016-09-08T04:14:34.877Z,8
2016-09-08T04:15:34.810Z,4
2016-09-08T04:16:34.754Z,4
2016-09-08T04:17:34.694Z,4
2016-09-08T04:18:34.633Z,4
2016-09-08T04:19:34.593Z,4
2016-09-08T04:20:34.524Z,4
2016-09-08T04:21:34.465Z,4
2016-09-08T04:22:34.397Z,4
2016-09-08T04:23:34.638Z,4
2016-09-08T04:24:34.280Z,4
2016-09-08T04:25:34.217Z,4
2016-09-08T04:26:34.476Z,4
2016-09-08T04:27:34.109Z,4
2016-09-08T04:28:34.056Z,4
2016-09-08T04:29:33.982Z,8
2016-09-08T04:30:33.926Z,8
2016-09-08T04:31:33.890Z,8
2016-09-08T04:32:33.801Z,8
2016-09-08T04:33:33.749Z,8
2016-09-08T04:34:33.689Z,8
2016-09-08T04:35:33.640Z,8
2016-09-08T04:36:33.877Z,8
2016-09-08T04:37:33.517Z,8
2016-09-08T04:38:33.455Z,8
2016-09-08T04:39:33.436Z,8
2016-09-08T04:40:33.754Z,8
2016-09-08T04:41:33.270Z,8
2016-09-08T04:42:33.227Z,8
2016-09-08T04:43:33.162Z,12
2016-09-08T04:44:33.098Z,12
2016-09-08T04:45:33.351Z,12
2016-09-08T04:46:32.979Z,8
2016-09-08T04:47:32.922Z,12
2016-09-08T04:48:32.865Z,12
2016-09-08T04:49:32.807Z,12
2016-09-08T04:50:32.739Z,16
2016-09-08T04:51:32.691Z,12
2016-09-08T04:52:32.624Z,12
2016-09-08T04:53:32.569Z,16
2016-09-08T04:54:32.813Z,12
2016-09-08T04:55:32.461Z,16
2016-09-08T04:56:32.391Z,16
2016-09-08T04:57:32.334Z,16
2016-09-08T04:58:32.274Z,16
2016-09-08T04:59:32.220Z,20
2016-09-08T05:00:32.200Z,20
2016-09-08T05:01:32.397Z,20
2016-09-08T05:02:32.035Z,20
2016-09-08T05:03:32.278Z,24
2016-09-08T05:04:32.222Z,24
2016-09-08T05:05:31.856Z,24
2016-09-08T05:06:32.100Z,24
2016-09-08T05:07:31.752Z,28
2016-09-08T05:08:31.679Z,24
2016-09-08T05:09:31.625Z,28
2016-09-08T05:10:31.566Z,28
2016-09-08T05:11:31.510Z,32
2016-09-08T05:12:31.443Z,32
2016-09-08T05:13:31.398Z,32
2016-09-08T05:14:31.326Z,32
2016-09-08T05:15:31.266Z,36
2016-09-08T05:16:31.212Z,36
2016-09-08T05:17:31.452Z,40
2016-09-08T05:18:31.391Z,40
2016-09-08T05:19:31.049Z,40
2016-09-08T05:20:30.974Z,44
2016-09-08T05:21:30.917Z,44
2016-09-08T05:22:30.873Z,48
2016-09-08T05:23:31.099Z,48
2016-09-08T05:24:30.736Z,52
2016-09-08T05:25:30.680Z,56
2016-09-08T05:26:30.617Z,56
2016-09-08T05:27:30.560Z,56
2016-09-08T05:28:30.499Z,56
2016-09-08T05:29:30.444Z,64
2016-09-08T05:30:30.426Z,64
2016-09-08T05:31:30.324Z,68
2016-09-08T05:32:30.465Z,64
2016-09-08T05:33:30.206Z,68
2016-09-08T05:34:30.151Z,68
2016-09-08T05:35:30.080Z,72
2016-09-08T05:36:30.026Z,72
2016-09-08T05:37:30.278Z,76
2016-09-08T05:38:29.918Z,76
2016-09-08T05:39:29.850Z,68
2016-09-08T05:40:30.094Z,72
2016-09-08T05:41:29.742Z,72
2016-09-08T05:42:29.975Z,68
2016-09-08T05:43:29.611Z,72
2016-09-08T05:44:29.855Z,72
2016-09-08T05:45:29.501Z,80
2016-09-08T05:46:29.732Z,84
2016-09-08T05:47:29.371Z,84
2016-09-08T05:48:29.311Z,88
2016-09-08T05:49:29.563Z,88
2016-09-08T05:50:29.201Z,92
2016-09-08T05:51:29.141Z,92
2016-09-08T05:52:29.080Z,96
2016-09-08T05:53:29.045Z,100
2016-09-08T05:54:29.573Z,100
2016-09-08T05:55:28.900Z,104
2016-09-08T05:56:28.849Z,108
2016-09-08T05:57:29.399Z,104
2016-09-08T05:58:28.730Z,112
2016-09-08T05:59:28.669Z,116
2016-09-08T06:00:29.007Z,128
2016-09-08T06:01:28.550Z,128
2016-09-08T06:02:28.512Z,120
2016-09-08T06:03:28.739Z,136
2016-09-08T06:04:28.377Z,136
2016-09-08T06:05:28.618Z,136
2016-09-08T06:06:28.254Z,140
2016-09-08T06:07:28.561Z,148
2016-09-08T06:08:28.133Z,156
2016-09-08T06:09:28.083Z,152
2016-09-08T06:10:28.663Z,164
2016-09-08T06:11:27.964Z,168
2016-09-08T06:12:27.902Z,156
2016-09-08T06:13:27.839Z,180
2016-09-08T06:14:27.784Z,180
2016-09-08T06:15:27.725Z,176
2016-09-08T06:16:27.673Z,164
2016-09-08T06:17:27.600Z,172
2016-09-08T06:18:27.547Z,172
2016-09-08T06:19:33.152Z,160
2016-09-08T06:20:27.483Z,168
2016-09-08T06:21:27.361Z,168
2016-09-08T06:22:27.310Z,176
2016-09-08T06:23:27.246Z,184
2016-09-08T06:24:27.188Z,176
2016-09-08T06:25:27.428Z,188
2016-09-08T06:26:27.077Z,208
2016-09-08T06:27:27.014Z,220
2016-09-08T06:28:27.264Z,216
2016-09-08T06:29:26.891Z,228
2016-09-08T06:30:26.832Z,228
2016-09-08T06:31:27.079Z,232
2016-09-08T06:32:26.714Z,228
2016-09-08T06:33:26.666Z,240
2016-09-08T06:34:26.596Z,236
2016-09-08T06:35:26.540Z,244
2016-09-08T06:36:26.794Z,252
2016-09-08T06:37:26.410Z,252
2016-09-08T06:38:26.659Z,268
2016-09-08T06:39:26.602Z,264
2016-09-08T06:40:26.240Z,272
2016-09-08T06:41:26.185Z,284
2016-09-08T06:42:26.120Z,276
2016-09-08T06:43:26.069Z,280
2016-09-08T06:44:26.013Z,276
2016-09-08T06:45:25.956Z,260
2016-09-08T06:46:25.883Z,252
2016-09-08T06:47:26.132Z,252
2016-09-08T06:48:26.081Z,252
2016-09-08T06:49:25.708Z,248
2016-09-08T06:50:25.654Z,240
2016-09-08T06:51:25.589Z,236
2016-09-08T06:52:25.553Z,220
2016-09-08T06:53:25.479Z,224
2016-09-08T06:54:25.726Z,256
2016-09-08T06:55:25.973Z,356
2016-09-08T06:56:25.619Z,288
2016-09-08T06:57:25.248Z,228
2016-09-08T06:58:25.180Z,220
2016-09-08T06:59:25.729Z,208
2016-09-08T07:00:25.081Z,216
2016-09-08T07:01:25.122Z,216
2016-09-08T07:02:24.945Z,204
2016-09-08T07:03:25.084Z,212
2016-09-08T07:04:25.438Z,172
2016-09-08T07:05:24.798Z,164
2016-09-08T07:06:24.714Z,164
2016-09-08T07:07:24.951Z,160
2016-09-08T07:08:24.587Z,224
2016-09-08T07:09:24.532Z,224
2016-09-08T07:10:24.784Z,236
2016-09-08T07:11:24.411Z,248
2016-09-08T07:12:25.175Z,156
2016-09-08T07:13:24.501Z,244
2016-09-08T07:14:24.240Z,236
2016-09-08T07:15:24.187Z,220
2016-09-08T07:16:24.107Z,200
2016-09-08T07:17:24.365Z,184
2016-09-08T07:18:23.994Z,164
2016-09-08T07:19:23.935Z,168
2016-09-08T07:20:23.880Z,160
2016-09-08T07:21:24.120Z,148
2016-09-08T07:22:24.065Z,156
2016-09-08T07:23:24.242Z,148
2016-09-08T07:24:23.656Z,140
2016-09-08T07:25:23.580Z,148
2016-09-08T07:26:23.528Z,144
2016-09-08T07:27:23.795Z,144
2016-09-08T07:28:23.714Z,144
2016-09-08T07:29:23.368Z,144
2016-09-08T07:30:23.607Z,136
2016-09-08T07:31:23.228Z,136
2016-09-08T07:32:23.230Z,140
2016-09-08T07:33:23.414Z,148
2016-09-08T07:34:23.354Z,152
2016-09-08T07:35:23.009Z,152
2016-09-08T07:36:22.940Z,148
2016-09-08T07:37:22.883Z,148
2016-09-08T07:38:23.049Z,152
2016-09-08T07:39:22.800Z,156
2016-09-08T07:40:22.708Z,152
2016-09-08T07:41:22.653Z,152
2016-09-08T07:42:22.891Z,152
2016-09-08T07:43:23.029Z,152
2016-09-08T07:44:22.781Z,148
2016-09-08T07:45:22.405Z,148
2016-09-08T07:46:22.971Z,152
2016-09-08T07:47:22.924Z,144
2016-09-08T07:48:22.535Z,144
2016-09-08T07:49:22.171Z,144
2016-09-08T07:50:22.127Z,144
2016-09-08T07:51:22.376Z,144
2016-09-08T07:52:22.005Z,148
2016-09-08T07:53:21.930Z,144
2016-09-08T07:54:21.878Z,148
2016-09-08T07:55:21.815Z,136
2016-09-08T07:56:22.099Z,140
2016-09-08T07:57:21.697Z,144
2016-09-08T07:58:21.633Z,132
2016-09-08T07:59:21.895Z,140
2016-09-08T08:00:21.836Z,136
2016-09-08T08:01:21.772Z,136
2016-09-08T08:02:21.721Z,136
2016-09-08T08:03:21.845Z,136
2016-09-08T08:04:21.290Z,136
2016-09-08T08:05:21.528Z,132
2016-09-08T08:06:21.161Z,128
2016-09-08T08:07:21.121Z,124
2016-09-08T08:08:21.566Z,136
2016-09-08T08:09:20.995Z,136
2016-09-08T08:10:20.933Z,132
2016-09-08T08:11:21.691Z,124
2016-09-08T08:12:21.315Z,124
2016-09-08T08:13:21.076Z,128
2016-09-08T08:14:20.696Z,128
2016-09-08T08:15:20.630Z,120
2016-09-08T08:16:20.593Z,128
2016-09-08T08:17:20.515Z,124
2016-09-08T08:18:20.767Z,120
2016-09-08T08:19:20.718Z,120
2016-09-08T08:20:20.944Z,124
2016-09-08T08:21:20.597Z,120
2016-09-08T08:22:20.242Z,120
2016-09-08T08:23:20.467Z,128
2016-09-08T08:24:20.123Z,116
2016-09-08T08:25:20.057Z,116
2016-09-08T08:26:19.980Z,108
2016-09-08T08:27:19.934Z,116
2016-09-08T08:28:20.172Z,116
2016-09-08T08:29:20.126Z,120
2016-09-08T08:30:19.751Z,124
2016-09-08T08:31:19.992Z,124
2016-09-08T08:32:19.642Z,112
2016-09-08T08:33:19.591Z,116
2016-09-08T08:34:19.815Z,116
2016-09-08T08:35:19.495Z,120
2016-09-08T08:36:19.407Z,120
2016-09-08T08:37:19.333Z,116
2016-09-08T08:38:19.304Z,116
2016-09-08T08:39:19.937Z,116
2016-09-08T08:40:19.787Z,116
2016-09-08T08:41:19.302Z,108
2016-09-08T08:42:19.454Z,104
2016-09-08T08:43:18.992Z,112
2016-09-08T08:44:18.918Z,92
2016-09-08T08:45:18.893Z,108
2016-09-08T08:46:19.121Z,92
2016-09-08T08:47:19.058Z,96
2016-09-08T08:48:18.699Z,104
2016-09-08T08:49:19.233Z,96
2016-09-08T08:50:18.587Z,104
2016-09-08T08:51:18.510Z,100
2016-09-08T08:52:18.777Z,96
2016-09-08T08:53:18.695Z,100
2016-09-08T08:54:18.647Z,100
2016-09-08T08:55:18.284Z,100
2016-09-08T08:56:18.573Z,96
2016-09-08T08:57:18.157Z,96
2016-09-08T08:58:18.091Z,96
2016-09-08T08:59:18.039Z,96
2016-09-08T09:00:17.979Z,96
2016-09-08T09:01:18.236Z,92
2016-09-08T09:02:17.861Z,96
2016-09-08T09:03:17.809Z,100
2016-09-08T09:04:17.753Z,96
2016-09-08T09:05:17.687Z,96
2016-09-08T09:06:17.627Z,96
2016-09-08T09:07:17.644Z,96
2016-09-08T09:08:17.845Z,92
2016-09-08T09:09:17.445Z,92
2016-09-08T09:10:17.396Z,92
2016-09-08T09:11:17.358Z,96
2016-09-08T09:12:17.584Z,96
2016-09-08T09:13:17.531Z,88
2016-09-08T09:14:17.161Z,88
2016-09-08T09:15:17.099Z,92
2016-09-08T09:16:17.366Z,92
2016-09-08T09:17:16.974Z,92
2016-09-08T09:18:16.927Z,92
2016-09-08T09:19:17.174Z,92
2016-09-08T09:20:16.792Z,88
2016-09-08T09:21:16.741Z,92
2016-09-08T09:22:16.684Z,88
2016-09-08T09:23:16.629Z,92
2016-09-08T09:24:16.590Z,88
2016-09-08T09:25:16.835Z,92
2016-09-08T09:26:16.768Z,84
2016-09-08T09:27:16.387Z,84
2016-09-08T09:28:16.327Z,88
2016-09-08T09:29:16.313Z,88
2016-09-08T09:30:16.543Z,80
2016-09-08T09:31:16.162Z,88
2016-09-08T09:32:16.400Z,88
2016-09-08T09:33:16.332Z,88
2016-09-08T09:34:15.974Z,88
2016-09-08T09:35:15.920Z,84
2016-09-08T09:36:16.173Z,88
2016-09-08T09:37:15.793Z,88
2016-09-08T09:38:15.739Z,88
2016-09-08T09:39:15.680Z,88
2016-09-08T09:40:15.611Z,84
2016-09-08T09:41:15.765Z,88
2016-09-08T09:42:15.814Z,84
2016-09-08T09:43:15.748Z,80
2016-09-08T09:44:15.690Z,88
2016-09-08T09:45:15.398Z,84
2016-09-08T09:46:15.594Z,84
2016-09-08T09:47:15.229Z,76
2016-09-08T09:48:15.462Z,80
2016-09-08T09:49:15.388Z,76
2016-09-08T09:50:15.045Z,80
2016-09-08T09:51:15.589Z,84
2016-09-08T09:52:15.232Z,84
2016-09-08T09:53:15.465Z,80
2016-09-08T09:54:15.096Z,84
2016-09-08T09:55:14.753Z,80
2016-09-08T09:56:14.691Z,80
2016-09-08T09:57:14.941Z,84
2016-09-08T09:58:14.574Z,80
2016-09-08T09:59:14.495Z,80
2016-09-08T10:00:14.447Z,84
2016-09-08T10:01:14.403Z,76
2016-09-08T10:02:14.644Z,84
2016-09-08T10:03:14.564Z,84
2016-09-08T10:04:14.204Z,84
2016-09-08T10:05:14.464Z,80
2016-09-08T10:06:14.091Z,80
2016-09-08T10:07:14.045Z,80
2016-09-08T10:08:13.975Z,80
2016-09-08T10:09:14.829Z,84
2016-09-08T10:10:13.863Z,80
2016-09-08T10:11:13.808Z,84
2016-09-08T10:12:13.752Z,84
2016-09-08T10:13:13.677Z,84
2016-09-08T10:14:13.634Z,84
2016-09-08T10:15:13.557Z,84
2016-09-08T10:16:13.803Z,80
2016-09-08T10:17:13.446Z,84
2016-09-08T10:18:13.384Z,80
2016-09-08T10:19:13.340Z,84
2016-09-08T10:20:22.107Z,84
2016-09-08T10:21:13.233Z,88
2016-09-08T10:22:13.154Z,88
2016-09-08T10:23:13.095Z,84
2016-09-08T10:24:13.022Z,84
2016-09-08T10:25:13.028Z,80
2016-09-08T10:26:13.874Z,84
2016-09-08T10:27:12.863Z,80
2016-09-08T10:28:13.094Z,84
2016-09-08T10:29:12.733Z,84
2016-09-08T10:30:12.670Z,80
2016-09-08T10:31:12.617Z,80
2016-09-08T10:32:12.563Z,84
2016-09-08T10:33:12.512Z,84
2016-09-08T10:34:12.776Z,80
2016-09-08T10:35:12.703Z,84
2016-09-08T10:36:13.246Z,88
2016-09-08T10:37:12.576Z,88
2016-09-08T10:38:12.509Z,88
2016-09-08T10:39:12.447Z,88
2016-09-08T10:40:12.410Z,88
2016-09-08T10:41:12.029Z,88
2016-09-08T10:42:11.962Z,88
2016-09-08T10:43:12.208Z,88
2016-09-08T10:44:11.860Z,88
2016-09-08T10:45:12.456Z,88
2016-09-08T10:46:11.735Z,92
2016-09-08T10:47:11.978Z,88
2016-09-08T10:48:11.924Z,92
2016-09-08T10:49:11.567Z,88
2016-09-08T10:50:12.145Z,92
2016-09-08T10:51:11.750Z,92
2016-09-08T10:52:11.392Z,88
2016-09-08T10:53:11.337Z,92
2016-09-08T10:54:11.566Z,92
2016-09-08T10:55:11.215Z,92
2016-09-08T10:56:11.150Z,92
2016-09-08T10:57:11.415Z,92
2016-09-08T10:58:11.032Z,92
2016-09-08T10:59:10.968Z,92
2016-09-08T11:00:10.908Z,88
2016-09-08T11:01:10.846Z,92
2016-09-08T11:02:10.800Z,92
2016-09-08T11:03:10.729Z,92
2016-09-08T11:04:10.978Z,92
2016-09-08T11:05:10.919Z,92
2016-09-08T11:06:10.558Z,96
2016-09-08T11:07:10.794Z,92
2016-09-08T11:08:10.457Z,96
2016-09-08T11:09:10.388Z,96
2016-09-08T11:10:10.332Z,92
2016-09-08T11:11:10.864Z,96
2016-09-08T11:12:10.196Z,96
2016-09-08T11:13:10.155Z,100
2016-09-08T11:14:10.117Z,100
2016-09-08T11:15:10.241Z,100
2016-09-08T11:16:09.966Z,96
2016-09-08T11:17:09.946Z,100
2016-09-08T11:18:10.164Z,92
2016-09-08T11:19:09.785Z,100
2016-09-08T11:20:09.746Z,96
2016-09-08T11:21:09.982Z,96
2016-09-08T11:22:09.632Z,96
2016-09-08T11:23:09.566Z,100
2016-09-08T11:24:09.499Z,96
2016-09-08T11:25:09.753Z,96
2016-09-08T11:26:09.704Z,96
2016-09-08T11:27:09.674Z,96
2016-09-08T11:28:09.269Z,96
2016-09-08T11:29:09.270Z,96
2016-09-08T11:30:09.403Z,100
2016-09-08T11:31:09.109Z,96
2016-09-08T11:32:09.042Z,96
2016-09-08T11:33:08.969Z,96
2016-09-08T11:34:09.211Z,96
2016-09-08T11:35:09.187Z,96
2016-09-08T11:36:08.816Z,96
2016-09-08T11:37:08.752Z,100
2016-09-08T11:38:09.010Z,96
2016-09-08T11:39:08.621Z,100
2016-09-08T11:40:08.882Z,96
2016-09-08T11:41:08.734Z,96
2016-09-08T11:42:08.745Z,100
2016-09-08T11:43:08.390Z,100
2016-09-08T11:44:08.346Z,96
2016-09-08T11:45:08.280Z,96
2016-09-08T11:46:08.555Z,96
2016-09-08T11:47:08.152Z,96
2016-09-08T11:48:08.410Z,100
2016-09-08T11:49:08.035Z,100
2016-09-08T11:50:08.669Z,100
2016-09-08T11:51:08.236Z,100
2016-09-08T11:52:08.206Z,104
2016-09-08T11:53:08.130Z,100
2016-09-08T11:54:08.054Z,100
2016-09-08T11:55:08.231Z,100
2016-09-08T11:56:08.215Z,100
2016-09-08T11:57:07.641Z,100
2016-09-08T11:58:07.772Z,100
2016-09-08T11:59:07.446Z,104
2016-09-08T12:00:07.431Z,104
2016-09-08T12:01:07.514Z,104
2016-09-08T12:02:07.623Z,100
2016-09-08T12:03:07.738Z,104
2016-09-08T12:04:07.172Z,108
2016-09-08T12:05:07.165Z,108
2016-09-08T12:06:07.643Z,108
2016-09-08T12:07:06.978Z,112
2016-09-08T12:08:06.926Z,116
2016-09-08T12:09:07.202Z,120
2016-09-08T12:10:07.308Z,124
2016-09-08T12:11:07.259Z,124
2016-09-08T12:12:07.505Z,124
2016-09-08T12:13:06.657Z,124
2016-09-08T12:14:06.879Z,116
2016-09-08T12:15:06.557Z,120
2016-09-08T12:16:06.468Z,116
2016-09-08T12:17:07.021Z,120
2016-09-08T12:18:06.335Z,116
2016-09-08T12:19:06.578Z,112
2016-09-08T12:20:06.533Z,112
2016-09-08T12:21:06.173Z,112
2016-09-08T12:22:06.731Z,112
2016-09-08T12:23:06.656Z,108
2016-09-08T12:24:06.301Z,108
2016-09-08T12:25:06.854Z,104
2016-09-08T12:26:06.198Z,108
2016-09-08T12:27:05.848Z,108
2016-09-08T12:28:06.070Z,108
2016-09-08T12:29:05.707Z,104
2016-09-08T12:30:05.640Z,108
2016-09-08T12:31:05.574Z,104
2016-09-08T12:32:05.535Z,104
2016-09-08T12:33:06.081Z,104
2016-09-08T12:34:05.397Z,108
2016-09-08T12:35:05.957Z,108
2016-09-08T12:36:05.280Z,108
2016-09-08T12:37:05.242Z,108
2016-09-08T12:38:05.365Z,108
2016-09-08T12:39:05.128Z,104
2016-09-08T12:40:05.356Z,108
2016-09-08T12:41:05.002Z,108
2016-09-08T12:42:04.939Z,104
2016-09-08T12:43:05.193Z,108
2016-09-08T12:44:05.432Z,104
2016-09-08T12:45:04.759Z,108
2016-09-08T12:46:05.012Z,108
2016-09-08T12:47:04.970Z,104
2016-09-08T12:48:04.916Z,108
2016-09-08T12:49:04.540Z,108
2016-09-08T12:50:04.774Z,104
2016-09-08T12:51:04.416Z,108
2016-09-08T12:52:04.655Z,104
2016-09-08T12:53:04.839Z,104
2016-09-08T12:54:04.586Z,100
2016-09-08T12:55:04.819Z,104
2016-09-08T12:56:04.136Z,104
2016-09-08T12:57:04.064Z,104
2016-09-08T12:58:04.010Z,104
2016-09-08T12:59:04.263Z,104
2016-09-08T13:00:04.242Z,104
2016-09-08T13:01:04.126Z,104
2016-09-08T13:02:04.091Z,104
2016-09-08T13:03:03.716Z,104
2016-09-08T13:04:03.670Z,104
2016-09-08T13:05:04.560Z,96
2016-09-08T13:06:03.881Z,96
2016-09-08T13:07:03.519Z,108
2016-09-08T13:08:03.739Z,104
2016-09-08T13:09:03.863Z,100
2016-09-08T13:10:03.607Z,104
2016-09-08T13:11:03.558Z,100
2016-09-08T13:12:03.207Z,100
2016-09-08T13:13:03.136Z,96
2016-09-08T13:14:03.066Z,100
2016-09-08T13:15:03.318Z,88
2016-09-08T13:16:02.949Z,100
2016-09-08T13:17:02.889Z,100
2016-09-08T13:18:02.831Z,100
2016-09-08T13:19:03.113Z,104
2016-09-08T13:20:02.717Z,104
2016-09-08T13:21:04.757Z,104
2016-09-08T13:22:02.646Z,104
2016-09-08T13:23:02.871Z,108
2016-09-08T13:24:02.825Z,108
2016-09-08T13:25:02.432Z,108
2016-09-08T13:26:02.690Z,104
2016-09-08T13:27:02.317Z,104
2016-09-08T13:28:02.245Z,104
2016-09-08T13:29:02.197Z,108
2016-09-08T13:30:02.453Z,104
2016-09-08T13:31:02.084Z,104
2016-09-08T13:32:02.041Z,112
2016-09-08T13:33:01.961Z,108
2016-09-08T13:34:02.202Z,112
2016-09-08T13:35:01.858Z,108
2016-09-08T13:36:01.795Z,104
2016-09-08T13:37:01.748Z,108
2016-09-08T13:38:02.198Z,108
2016-09-08T13:39:01.920Z,104
2016-09-08T13:40:01.578Z,100
2016-09-08T13:41:01.721Z,100
2016-09-08T13:42:01.442Z,96
2016-09-08T13:43:02.017Z,96
2016-09-08T13:44:01.839Z,92
2016-09-08T13:45:01.606Z,92
2016-09-08T13:46:01.464Z,88
2016-09-08T13:47:01.170Z,88
2016-09-08T13:48:01.398Z,88
2016-09-08T13:49:01.687Z,88
2016-09-08T13:50:00.961Z,88
2016-09-08T13:51:00.937Z,88
2016-09-08T13:52:01.385Z,88
2016-09-08T13:53:01.431Z,88
2016-09-08T13:54:01.041Z,88
2016-09-08T13:55:01.335Z,88
2016-09-08T13:56:00.934Z,88
2016-09-08T13:57:00.550Z,84
2016-09-08T13:58:01.110Z,84
2016-09-08T13:59:00.450Z,88
2016-09-08T14:00:01.026Z,84
2016-09-08T14:01:00.983Z,84
2016-09-08T14:02:00.279Z,88
2016-09-08T14:03:00.841Z,84
2016-09-08T14:04:00.464Z,84
2016-09-08T14:05:00.099Z,84
2016-09-08T14:06:00.359Z,84
2016-09-08T14:07:00.305Z,84
2016-09-08T14:08:00.742Z,88
2016-09-08T14:09:00.173Z,84
2016-09-08T14:10:00.115Z,84
2016-09-08T14:10:59.746Z,84
2016-09-08T14:11:59.688Z,84
2016-09-08T14:13:00.250Z,84
2016-09-08T14:13:59.571Z,84
2016-09-08T14:14:59.809Z,84